Kendrick, ID

7:21 PM PST on February 05, 2016 (GMT -0800)
Linden-Cedar Ridge | | Change Station
CLOSE
Current Station
Personal Weather Station
Location: Kendrick, ID
Elevation: 2707 ft
Nearby Weather Stations

Elev 2707 ft 46.69 °N, 116.50 °W | Updated 8 seconds ago

Mostly Cloudy
Mostly Cloudy
43.0 °F
Feels Like 37 °F
N
12.1
Wind Variable Wind from NNW
Gusts 16.0 mph

Today
High -- | Low -- °F
--% Chance of Precip.
Yesterday
High -- | Low -- °F
Precip. -- in
Pressure 30.25 in
Visibility 10.0 miles
Clouds Clear
Windchill 37 °F
Dew Point 34 °F
Humidity 70%
Rainfall 0.04 in
Snow Depth Not available.
7:05 AM 4:55 PM
Waning Crescent, 8% visible
METAR KPUW 060253Z AUTO 16014KT 10SM CLR 06/01 A3020 RMK AO2 PK WND 14026/0208 SLP244 T00560006 55021
Pressure 30.25 in
Visibility 10.0 miles
Clouds Clear
Windchill 37 °F
Dew Point 34 °F
Humidity 70%
Rainfall 0.04 in
Snow Depth Not available.
7:05 AM 4:55 PM
Waning Crescent, 8% visible
METAR KPUW 060253Z AUTO 16014KT 10SM CLR 06/01 A3020 RMK AO2 PK WND 14026/0208 SLP244 T00560006 55021

10-Day Weather Forecast

Almanac

Astronomy

Feb. 05, 2016 Rise Set
Actual Time
Civil Twilight
Nautical Twilight
Astronomical Twilight
Moon
Length of Visible Light
Length of Day
Tomorrow will be .
, % of the Moon is Illuminated

Today's Extremes

State Highs State Lows

Community

WunderPhotos

Upload Photos

1,890,918 photos uploaded!

WunderBlog® & News

Nearby

Air Quality

  Air Quality AQ Index Pollutant
Not available.

Snow Depth

Station Depth Elevation

Earthquake Activity

City Distance Mag. Time & Date
Minimum magnitude displayed is 2.5.

Coastal Water Temperatures

Place Temperature

Stations

Nearby Weather Stations

Station Location Temp. Windchill Dew Point Humidity Wind Precip. Elev Updated Type
                   

Watches & Warnings

There are currently no watches in effect.